Time;durP1;ratioP1;P1;durP2;ratioP2;P2;SDS_P1;SDS_P2;PMS_P1;PMS_P2;Temp;Humidity;BMP_temperature;BMP_pressure;BME280_temperature;BME280_humidity;BME280_pressure;Samples;Min_cycle;Max_cycle;Signal;HPM_P1;HPM_P2
2024/04/15 00:00:27;;;;;;;5.40;1.70;;;10.30;99.90;;;;;;5526348;25;19993;-78
2024/04/15 00:02:53;;;;;;;3.10;1.83;;;10.20;99.90;;;;;;5526438;25;20042;-79
2024/04/15 00:05:19;;;;;;;4.88;1.80;;;10.20;99.90;;;;;;5526795;26;19994;-80
2024/04/15 00:07:44;;;;;;;6.20;1.42;;;10.20;99.90;;;;;;5531414;25;20073;-79
2024/04/15 00:10:10;;;;;;;3.58;1.40;;;10.10;99.90;;;;;;5526554;25;19993;-80
2024/04/15 00:12:36;;;;;;;1.80;1.40;;;10.10;99.90;;;;;;5525864;26;20354;-80
2024/04/15 00:15:02;;;;;;;7.35;2.30;;;10.10;99.90;;;;;;5525093;26;20013;-79
2024/04/15 00:17:28;;;;;;;1.95;1.48;;;10.10;99.90;;;;;;5525182;26;20047;-78
2024/04/15 00:19:54;;;;;;;4.55;1.75;;;10.10;99.90;;;;;;5524670;26;20005;-80
2024/04/15 00:22:19;;;;;;;3.33;1.58;;;9.90;99.90;;;;;;5527225;25;20330;-78
2024/04/15 00:24:46;;;;;;;3.50;1.77;;;9.90;99.90;;;;;;5525426;26;20033;-77
2024/04/15 00:27:13;;;;;;;1.58;1.25;;;9.80;99.90;;;;;;5525714;25;20065;-77
2024/04/15 00:29:39;;;;;;;;;;;9.80;99.90;;;;;;5524368;26;20395;-78
2024/04/15 00:32:06;;;;;;;3.88;1.85;;;9.80;99.90;;;;;;5525374;25;19964;-77
2024/04/15 00:34:32;;;;;;;2.10;1.35;;;9.80;99.90;;;;;;5511867;26;19994;-78
2024/04/15 00:36:58;;;;;;;1.85;1.30;;;9.80;99.90;;;;;;5525718;26;20004;-79
2024/04/15 00:39:27;;;;;;;1.33;1.20;;;9.80;99.90;;;;;;5525353;25;20439;-80
2024/04/15 00:41:53;;;;;;;3.20;1.15;;;9.80;99.90;;;;;;5525096;25;19997;-79
2024/04/15 00:44:19;;;;;;;2.88;1.33;;;9.80;99.90;;;;;;5528718;25;19994;-79
2024/04/15 00:46:45;;;;;;;2.90;1.25;;;9.70;99.90;;;;;;5526577;25;19997;-79
2024/04/15 00:49:12;;;;;;;1.38;1.27;;;9.60;99.90;;;;;;5524370;26;20046;-80
2024/04/15 00:51:40;;;;;;;2.08;1.20;;;9.50;99.90;;;;;;5526015;25;20000;-81
2024/04/15 00:54:08;;;;;;;2.30;1.30;;;9.50;99.90;;;;;;5525729;25;19994;-79
2024/04/15 00:56:34;;;;;;;2.75;1.30;;;9.40;99.90;;;;;;5525231;25;20393;-81
2024/04/15 00:59:00;;;;;;;1.95;1.15;;;9.40;99.90;;;;;;5524425;25;19993;-79
2024/04/15 01:01:27;;;;;;;3.67;1.35;;;9.40;99.90;;;;;;5527690;25;20038;-79
2024/04/15 01:03:55;;;;;;;1.92;1.20;;;9.40;99.90;;;;;;5518815;25;20002;-80
2024/04/15 01:06:21;;;;;;;5.00;1.65;;;9.40;99.90;;;;;;5519116;26;20005;-80
2024/04/15 01:08:47;;;;;;;3.53;1.30;;;9.30;99.90;;;;;;5525448;25;20008;-80
2024/04/15 01:11:13;;;;;;;2.75;1.23;;;9.30;99.90;;;;;;5525267;25;20045;-79
2024/04/15 01:13:40;;;;;;;4.15;1.67;;;9.40;99.90;;;;;;5525097;25;20002;-81
2024/04/15 01:16:06;;;;;;;1.88;1.10;;;9.50;99.90;;;;;;5531460;25;20039;-82
2024/04/15 01:18:32;;;;;;;1.95;1.35;;;9.50;99.90;;;;;;5522812;26;20004;-80
2024/04/15 01:20:58;;;;;;;5.05;1.30;;;9.50;99.90;;;;;;5523025;26;19997;-81
2024/04/15 01:23:28;;;;;;;3.35;1.50;;;9.50;99.90;;;;;;5524931;25;19997;-80
2024/04/15 01:25:53;;;;;;;2.58;1.35;;;9.40;99.90;;;;;;5524929;25;20330;-81
2024/04/15 01:28:20;;;;;;;3.63;1.70;;;9.30;99.90;;;;;;5525089;25;20003;-81
2024/04/15 01:30:49;;;;;;;1.88;1.17;;;9.20;99.90;;;;;;5522937;26;20004;-80
2024/04/15 01:33:15;;;;;;;7.13;2.05;;;9.20;99.90;;;;;;5523011;26;20016;-79
2024/04/15 01:35:41;;;;;;;2.35;1.42;;;9.00;99.90;;;;;;5527829;25;20465;-80
2024/04/15 01:38:06;;;;;;;4.57;1.60;;;9.00;99.90;;;;;;5524836;26;19997;-78
2024/04/15 01:40:32;;;;;;;1.65;1.17;;;8.90;99.90;;;;;;5524389;25;19998;-78
2024/04/15 01:42:58;;;;;;;2.78;1.48;;;8.70;99.90;;;;;;5522778;26;19993;-81
2024/04/15 01:45:24;;;;;;;2.50;0.85;;;8.70;99.90;;;;;;5524524;25;20005;-80
2024/04/15 01:47:50;;;;;;;3.17;1.55;;;8.60;99.90;;;;;;5525233;25;20343;-79
2024/04/15 01:50:17;;;;;;;4.05;1.50;;;8.50;99.90;;;;;;5522725;26;19994;-81
2024/04/15 01:52:44;;;;;;;2.78;1.67;;;8.40;99.90;;;;;;5530475;25;19997;-81
2024/04/15 01:55:10;;;;;;;4.55;1.40;;;8.40;99.90;;;;;;5524618;25;20009;-80
2024/04/15 01:57:36;;;;;;;1.20;0.95;;;8.30;99.90;;;;;;5524329;25;20350;-82
2024/04/15 02:00:04;;;;;;;2.03;1.00;;;8.30;99.90;;;;;;5524583;26;20033;-79
2024/04/15 02:02:30;;;;;;;2.42;1.50;;;8.20;99.90;;;;;;5524570;25;20002;-79
2024/04/15 02:04:55;;;;;;;2.90;1.50;;;8.10;99.90;;;;;;5516467;25;19997;-78
2024/04/15 02:07:21;;;;;;;3.83;1.30;;;8.10;99.90;;;;;;5526976;25;19997;-79
2024/04/15 02:09:47;;;;;;;3.17;1.10;;;8.00;99.90;;;;;;5527277;25;20013;-81
2024/04/15 02:12:13;;;;;;;2.83;1.38;;;7.90;99.90;;;;;;5527891;25;20017;-81
2024/04/15 02:14:39;;;;;;;1.30;0.93;;;7.90;99.90;;;;;;5527515;26;20373;-81
2024/04/15 02:17:05;;;;;;;3.67;1.85;;;7.80;99.90;;;;;;5527765;25;20001;-82
2024/04/15 02:19:34;;;;;;;2.30;1.48;;;7.70;99.90;;;;;;5527503;25;19997;-80
2024/04/15 02:21:59;;;;;;;2.70;1.38;;;7.70;99.90;;;;;;5525719;26;20070;-81
2024/04/15 02:24:27;;;;;;;4.70;1.60;;;7.70;99.90;;;;;;5536782;25;20005;-80
2024/04/15 02:26:54;;;;;;;3.97;1.30;;;7.60;99.90;;;;;;5533236;25;20008;-81
2024/04/15 02:29:20;;;;;;;5.00;1.52;;;7.60;99.90;;;;;;5527622;25;20464;-81
2024/04/15 02:31:45;;;;;;;5.03;1.63;;;7.60;99.90;;;;;;5501467;26;19994;-81
2024/04/15 02:34:11;;;;;;;1.17;0.90;;;7.50;99.90;;;;;;5526556;26;20008;-80
2024/04/15 02:36:37;;;;;;;2.92;1.27;;;7.50;99.90;;;;;;5525984;26;20034;-80
2024/04/15 02:39:03;;;;;;;3.95;1.23;;;7.50;99.90;;;;;;5527523;25;20312;-80
2024/04/15 02:41:28;;;;;;;1.80;1.20;;;7.40;99.90;;;;;;5530075;25;19997;-80
2024/04/15 02:43:54;;;;;;;2.67;1.27;;;7.40;99.90;;;;;;5527901;25;20005;-80
2024/04/15 02:46:20;;;;;;;3.22;1.35;;;7.40;99.90;;;;;;5527309;25;20005;-81
2024/04/15 02:48:46;;;;;;;6.65;1.55;;;7.40;99.90;;;;;;5527489;25;20006;-79
2024/04/15 02:51:12;;;;;;;7.72;1.55;;;7.40;99.90;;;;;;5527814;25;20789;-79
2024/04/15 02:53:37;;;;;;;1.95;1.50;;;7.40;99.90;;;;;;5525920;26;20012;-81
2024/04/15 02:56:03;;;;;;;2.22;1.15;;;7.40;99.90;;;;;;5527427;26;20069;-81
2024/04/15 02:58:29;;;;;;;2.45;1.45;;;7.40;99.90;;;;;;5549021;25;20008;-81
2024/04/15 03:00:56;;;;;;;5.20;1.45;;;7.40;99.90;;;;;;5530338;25;20106;-79
2024/04/15 03:03:22;;;;;;;2.30;1.30;;;7.50;99.90;;;;;;5527313;25;20066;-79
2024/04/15 03:05:48;;;;;;;3.47;1.25;;;7.50;99.90;;;;;;5518775;25;20005;-80
2024/04/15 03:08:14;;;;;;;4.28;1.35;;;7.50;99.90;;;;;;5527381;25;20017;-80
2024/04/15 03:10:39;;;;;;;3.65;1.25;;;7.50;99.90;;;;;;5527701;25;20008;-78
2024/04/15 03:13:05;;;;;;;1.85;0.90;;;7.40;99.90;;;;;;5533905;26;20009;-80
2024/04/15 03:15:32;;;;;;;4.30;1.17;;;7.50;99.90;;;;;;5539559;25;19997;-78
2024/04/15 03:18:02;;;;;;;1.88;1.05;;;7.50;99.90;;;;;;5529420;25;19997;-77
2024/04/15 03:20:29;;;;;;;2.08;1.20;;;7.60;99.90;;;;;;5525679;25;20005;-78
2024/04/15 03:22:55;;;;;;;2.33;1.40;;;7.60;99.90;;;;;;5524771;26;20001;-78
2024/04/15 03:25:24;;;;;;;2.65;1.52;;;7.60;99.90;;;;;;5526823;25;20001;-80
2024/04/15 03:27:50;;;;;;;3.45;1.85;;;7.70;99.90;;;;;;5524864;26;19998;-79
2024/04/15 03:30:16;;;;;;;2.88;1.70;;;7.60;99.90;;;;;;5526770;25;20009;-79
2024/04/15 03:32:42;;;;;;;3.67;1.75;;;7.70;99.90;;;;;;5530126;25;20437;-82
2024/04/15 03:35:13;;;;;;;2.40;1.25;;;7.70;99.90;;;;;;5527696;25;19993;-78
2024/04/15 03:37:43;;;;;;;3.67;1.80;;;7.70;99.90;;;;;;5527023;26;20001;-80
2024/04/15 03:40:09;;;;;;;2.67;1.77;;;7.70;99.90;;;;;;5528197;25;20050;-79
2024/04/15 03:42:35;;;;;;;4.72;1.40;;;7.70;99.90;;;;;;5524346;25;19992;-77
2024/04/15 03:45:01;;;;;;;7.55;1.63;;;7.80;99.90;;;;;;5526612;25;20451;-80
2024/04/15 03:47:26;;;;;;;4.18;2.17;;;7.90;99.90;;;;;;5526224;25;20299;-79
2024/04/15 03:49:52;;;;;;;4.05;1.80;;;7.90;99.90;;;;;;5526072;26;20068;-81
2024/04/15 03:52:18;;;;;;;2.50;1.67;;;7.90;99.90;;;;;;5526026;26;20002;-80
2024/04/15 03:54:44;;;;;;;3.47;1.70;;;7.90;99.90;;;;;;5526585;25;20009;-80
2024/04/15 03:57:10;;;;;;;6.22;2.67;;;7.90;99.90;;;;;;5524405;26;20069;-82
2024/04/15 03:59:36;;;;;;;7.97;1.90;;;7.90;99.90;;;;;;5526048;25;20009;-80
2024/04/15 04:02:05;;;;;;;3.25;2.08;;;8.00;99.90;;;;;;5525979;25;20113;-79
2024/04/15 04:04:31;;;;;;;4.97;1.80;;;8.00;99.90;;;;;;5517381;25;20449;-78
2024/04/15 04:06:58;;;;;;;3.05;2.08;;;8.10;99.90;;;;;;5524470;26;19997;-79
2024/04/15 04:09:24;;;;;;;3.78;1.60;;;8.20;99.90;;;;;;5525776;26;20681;-78
2024/04/15 04:11:49;;;;;;;8.82;3.42;;;8.20;99.90;;;;;;5525862;25;20009;-78
2024/04/15 04:14:15;;;;;;;3.80;2.00;;;8.30;99.90;;;;;;5525994;25;20462;-78
2024/04/15 04:16:43;;;;;;;5.00;2.13;;;8.40;99.90;;;;;;5525826;26;20031;-80
2024/04/15 04:19:09;;;;;;;2.95;1.38;;;8.40;99.70;;;;;;5526093;25;20763;-79
2024/04/15 04:21:35;;;;;;;6.78;2.03;;;8.50;99.20;;;;;;5525568;26;20012;-80
2024/04/15 04:24:00;;;;;;;2.85;1.60;;;8.50;99.00;;;;;;5525778;25;19997;-79
2024/04/15 04:26:26;;;;;;;2.10;1.23;;;8.60;98.60;;;;;;5525727;25;20001;-77
2024/04/15 04:28:53;;;;;;;3.08;1.33;;;8.70;98.70;;;;;;5525166;26;20078;-78
2024/04/15 04:31:19;;;;;;;5.88;1.90;;;8.90;98.70;;;;;;5525532;25;19997;-79
2024/04/15 04:33:45;;;;;;;6.15;1.85;;;9.60;98.60;;;;;;5525175;25;20006;-79
2024/04/15 04:36:16;;;;;;;4.60;1.90;;;10.40;96.80;;;;;;5523754;26;20001;-79
2024/04/15 04:38:42;;;;;;;4.60;2.17;;;11.20;95.40;;;;;;5530560;25;19989;-79
2024/04/15 04:41:08;;;;;;;4.53;1.95;;;12.00;93.20;;;;;;5528667;25;19996;-78
2024/04/15 04:43:34;;;;;;;5.75;1.70;;;12.30;91.20;;;;;;5525128;25;20102;-80
2024/04/15 04:46:13;;;;;;;4.05;1.85;;;12.40;90.10;;;;;;5525007;26;20016;-79
2024/04/15 04:48:39;;;;;;;5.47;1.60;;;12.50;89.30;;;;;;5523339;26;20001;-78
2024/04/15 04:51:09;;;;;;;4.25;1.23;;;12.70;87.70;;;;;;5523014;26;20065;-79
2024/04/15 04:53:35;;;;;;;6.50;1.42;;;13.10;85.80;;;;;;5525222;25;20045;-79
2024/04/15 04:56:07;;;;;;;4.67;1.40;;;13.50;84.00;;;;;;5522983;26;20325;-80
2024/04/15 04:58:33;;;;;;;6.53;1.95;;;13.80;82.20;;;;;;5530745;25;19993;-79
2024/04/15 05:01:13;;;;;;;5.63;1.80;;;14.20;80.90;;;;;;5524825;25;19993;-79
2024/04/15 05:03:42;;;;;;;7.45;1.58;;;15.00;78.60;;;;;;5521739;25;20054;-80
2024/04/15 05:06:08;;;;;;;4.72;1.55;;;15.30;75.70;;;;;;5520873;26;20001;-82
2024/04/15 05:08:35;;;;;;;4.60;2.10;;;14.70;72.90;;;;;;5524840;25;20015;-82
2024/04/15 05:11:01;;;;;;;5.20;2.13;;;13.80;75.00;;;;;;5524749;25;20097;-80
2024/04/15 05:13:28;;;;;;;4.57;1.92;;;12.90;76.40;;;;;;5525424;25;20047;-80
2024/04/15 05:16:11;;;;;;;7.15;3.05;;;13.00;78.10;;;;;;5528366;25;20005;-80
2024/04/15 05:18:39;;;;;;;7.93;2.40;;;13.80;77.40;;;;;;5524363;25;20338;-80
2024/04/15 05:21:09;;;;;;;;;;;14.90;74.50;;;;;;5523128;26;20350;-81
2024/04/15 05:23:35;;;;;;;4.28;2.15;;;15.50;73.20;;;;;;5524891;25;19956;-78
2024/04/15 05:26:01;;;;;;;5.43;1.83;;;15.50;70.00;;;;;;5524199;26;19994;-79
2024/04/15 05:28:27;;;;;;;7.93;2.08;;;16.00;69.10;;;;;;5522310;26;20323;-80
2024/04/15 05:30:54;;;;;;;6.20;2.13;;;16.80;67.90;;;;;;5524712;25;20004;-82
2024/04/15 05:33:20;;;;;;;6.72;2.22;;;16.40;65.20;;;;;;5549717;25;19996;-80
2024/04/15 05:35:47;;;;;;;4.15;1.95;;;15.60;66.30;;;;;;5524369;25;20078;-79
2024/04/15 05:38:14;;;;;;;5.80;2.15;;;15.40;68.10;;;;;;5524647;25;20013;-79
2024/04/15 05:40:40;;;;;;;11.60;3.00;;;16.60;66.80;;;;;;5523553;25;20037;-80
2024/04/15 05:43:10;;;;;;;7.35;2.13;;;18.00;63.50;;;;;;5507542;25;20009;-80
2024/04/15 05:45:36;;;;;;;5.25;1.73;;;18.60;60.50;;;;;;5521271;25;19997;-81
2024/04/15 05:48:03;;;;;;;6.47;2.00;;;18.70;57.90;;;;;;5503310;26;20455;-80
2024/04/15 05:50:30;;;;;;;5.00;1.27;;;18.50;58.40;;;;;;5522164;25;20005;-82
2024/04/15 05:52:56;;;;;;;7.53;2.15;;;19.20;57.10;;;;;;5521595;26;20078;-82
2024/04/15 05:55:22;;;;;;;5.65;1.50;;;19.20;54.80;;;;;;5511492;25;20062;-81
2024/04/15 05:57:47;;;;;;;5.32;2.00;;;19.00;55.20;;;;;;5515945;26;20013;-81
2024/04/15 06:00:14;;;;;;;4.38;1.90;;;17.80;55.30;;;;;;5523955;26;20081;-78
2024/04/15 06:02:40;;;;;;;5.40;1.67;;;16.80;57.60;;;;;;5523742;25;20001;-82
2024/04/15 06:05:06;;;;;;;10.75;3.42;;;16.10;58.40;;;;;;5522228;26;20387;-80
2024/04/15 06:07:31;;;;;;;8.65;2.42;;;16.90;59.50;;;;;;5522147;26;19997;-80
2024/04/15 06:09:57;;;;;;;5.82;1.85;;;18.00;57.20;;;;;;5524057;26;20012;-81
2024/04/15 06:12:24;;;;;;;4.30;1.88;;;17.30;56.00;;;;;;5524379;25;20101;-82
2024/04/15 06:14:51;;;;;;;3.60;1.80;;;16.60;57.00;;;;;;5520321;25;19997;-81
2024/04/15 06:17:18;;;;;;;5.32;2.15;;;16.40;57.50;;;;;;5505547;25;20427;-83
2024/04/15 06:19:43;;;;;;;5.97;1.90;;;16.50;57.40;;;;;;5521501;25;20042;-83
2024/04/15 06:22:09;;;;;;;4.28;2.05;;;16.40;56.50;;;;;;5524021;26;19997;-81
2024/04/15 06:24:35;;;;;;;3.10;1.95;;;17.30;56.50;;;;;;5523525;25;20499;-81
2024/04/15 06:27:01;;;;;;;5.85;1.48;;;17.90;53.90;;;;;;5523507;26;19997;-82
2024/04/15 06:29:27;;;;;;;7.50;1.73;;;18.20;53.20;;;;;;5524097;25;19993;-82
2024/04/15 06:31:53;;;;;;;8.38;2.25;;;17.70;51.90;;;;;;5523509;25;20030;-81
2024/04/15 06:34:21;;;;;;;10.57;1.95;;;15.70;53.50;;;;;;5521888;25;19994;-82
2024/04/15 06:36:48;;;;;;;3.90;1.75;;;14.30;57.50;;;;;;5510695;25;19994;-83
2024/04/15 06:39:14;;;;;;;4.43;1.92;;;14.00;59.20;;;;;;5521722;26;19998;-82
2024/04/15 06:41:40;;;;;;;14.68;2.10;;;13.70;59.90;;;;;;5524594;25;19998;-82
2024/04/15 06:44:06;;;;;;;6.88;2.30;;;14.50;60.50;;;;;;5523017;26;20012;-83
2024/04/15 06:46:32;;;;;;;8.18;2.03;;;14.40;58.30;;;;;;5523648;26;20002;-80
2024/04/15 06:48:58;;;;;;;7.68;2.30;;;14.00;59.20;;;;;;5520371;26;19997;-81
2024/04/15 06:51:24;;;;;;;4.75;1.95;;;15.10;60.40;;;;;;5523472;25;19997;-83
2024/04/15 06:53:50;;;;;;;5.50;2.20;;;15.50;57.20;;;;;;5521681;25;19993;-82
2024/04/15 06:56:17;;;;;;;9.60;2.47;;;14.70;57.40;;;;;;5525785;25;20009;-83
2024/04/15 06:58:43;;;;;;;7.38;1.58;;;13.90;58.70;;;;;;5527215;25;20426;-82
2024/04/15 07:01:10;;;;;;;6.50;1.90;;;13.30;61.50;;;;;;5526498;25;20488;-79
2024/04/15 07:03:36;;;;;;;5.93;1.55;;;13.00;62.10;;;;;;5524177;25;20008;-79
2024/04/15 07:06:01;;;;;;;9.07;2.20;;;12.60;62.20;;;;;;5521278;26;20006;-81
2024/04/15 07:08:27;;;;;;;4.32;2.03;;;12.00;63.30;;;;;;5527193;26;20081;-78
2024/04/15 07:10:53;;;;;;;8.75;2.40;;;11.40;64.60;;;;;;5527622;25;20009;-81
2024/04/15 07:13:19;;;;;;;5.53;2.40;;;11.10;66.30;;;;;;5524050;26;20006;-80
2024/04/15 07:15:45;;;;;;;15.82;2.83;;;11.10;66.80;;;;;;5526684;26;20038;-82
2024/04/15 07:18:11;;;;;;;7.00;2.15;;;11.20;66.80;;;;;;5526632;25;19994;-80
2024/04/15 07:20:37;;;;;;;12.27;1.90;;;11.30;67.10;;;;;;5524393;26;20008;-80
2024/04/15 07:23:04;;;;;;;6.35;1.90;;;11.60;67.10;;;;;;5526050;25;20438;-79
2024/04/15 07:25:29;;;;;;;5.90;2.13;;;11.80;65.30;;;;;;5526185;25;19993;-80
2024/04/15 07:27:55;;;;;;;9.63;2.13;;;11.70;65.60;;;;;;5525930;25;19993;-82
2024/04/15 07:30:21;;;;;;;11.23;2.67;;;11.70;65.30;;;;;;5526631;25;20002;-82
2024/04/15 07:32:47;;;;;;;6.88;3.50;;;11.60;65.70;;;;;;5526871;25;20078;-83
2024/04/15 07:35:13;;;;;;;8.18;2.13;;;11.70;66.20;;;;;;5494880;26;20012;-84
2024/04/15 07:37:41;;;;;;;9.75;2.72;;;11.70;65.60;;;;;;5529799;25;20001;-81
2024/04/15 07:40:08;;;;;;;9.07;2.95;;;11.40;65.80;;;;;;5529206;25;20018;-81
2024/04/15 07:42:33;;;;;;;6.78;2.47;;;11.40;66.50;;;;;;5526797;25;20430;-80
2024/04/15 07:44:59;;;;;;;8.88;2.42;;;11.80;65.80;;;;;;5525781;26;19997;-80
2024/04/15 07:47:35;;;;;;;6.97;2.15;;;12.70;65.80;;;;;;5526869;25;19997;-81
2024/04/15 07:50:01;;;;;;;6.60;1.92;;;13.70;63.50;;;;;;5526642;25;20011;-80
2024/04/15 07:52:27;;;;;;;5.72;2.20;;;14.20;58.70;;;;;;5526331;25;19997;-81
2024/04/15 07:54:55;;;;;;;11.38;2.13;;;13.60;58.80;;;;;;5525896;25;20013;-81
2024/04/15 07:57:21;;;;;;;9.13;1.70;;;13.40;59.90;;;;;;5523512;26;20336;-81
2024/04/15 07:59:50;;;;;;;6.68;1.98;;;14.40;58.00;;;;;;5526789;26;20001;-80
2024/04/15 08:02:15;;;;;;;4.72;2.00;;;14.50;57.60;;;;;;5523514;26;20016;-81
2024/04/15 08:04:41;;;;;;;10.23;2.28;;;14.20;56.70;;;;;;5526633;25;19997;-81
2024/04/15 08:07:07;;;;;;;7.57;2.60;;;13.40;57.80;;;;;;5503704;26;20392;-81
2024/04/15 08:09:33;;;;;;;9.90;2.13;;;13.40;58.60;;;;;;5520981;26;20001;-81
2024/04/15 08:11:59;;;;;;;9.23;2.05;;;13.20;58.50;;;;;;5526659;25;19997;-82
2024/04/15 08:14:25;;;;;;;7.70;2.38;;;13.10;59.30;;;;;;5523124;25;20407;-81
2024/04/15 08:16:53;;;;;;;8.00;2.75;;;12.90;59.80;;;;;;5526078;25;20001;-83
2024/04/15 08:19:19;;;;;;;5.22;2.05;;;12.70;60.10;;;;;;5520770;26;20009;-82
2024/04/15 08:21:45;;;;;;;5.72;1.73;;;12.60;60.40;;;;;;5525257;25;20315;-82
2024/04/15 08:24:11;;;;;;;4.22;2.15;;;12.70;59.70;;;;;;5526018;25;20323;-83
2024/04/15 08:26:37;;;;;;;6.68;1.73;;;12.70;59.60;;;;;;5524835;26;20008;-81
2024/04/15 08:29:03;;;;;;;8.07;1.98;;;13.00;59.10;;;;;;5525016;26;20012;-84
2024/04/15 08:31:36;;;;;;;8.35;1.58;;;14.20;57.70;;;;;;5522951;26;19997;-85
2024/04/15 08:34:04;;;;;;;5.45;1.83;;;14.20;54.80;;;;;;5525685;25;20042;-83
2024/04/15 08:36:30;;;;;;;7.65;1.90;;;13.50;56.40;;;;;;5525752;25;20034;-83
2024/04/15 08:38:56;;;;;;;6.97;1.48;;;13.30;56.70;;;;;;5525670;25;19997;-83
2024/04/15 08:41:26;;;;;;;7.55;1.92;;;12.80;57.10;;;;;;5524537;25;20465;-84
2024/04/15 08:44:03;;;;;;;10.43;2.10;;;12.40;58.50;;;;;;5524120;25;20012;-84
2024/04/15 08:46:42;;;;;;;5.30;1.30;;;12.00;59.40;;;;;;5524258;25;20133;-80
2024/04/15 08:49:08;;;;;;;7.20;1.95;;;11.70;59.40;;;;;;5524267;25;20001;-82
2024/04/15 08:51:35;;;;;;;7.45;2.03;;;11.40;60.00;;;;;;5524905;25;20001;-81
2024/04/15 08:54:01;;;;;;;6.95;1.63;;;12.00;60.80;;;;;;5525335;25;20035;-80
2024/04/15 08:56:31;;;;;;;3.42;1.60;;;13.30;57.60;;;;;;5523060;26;20080;-82
2024/04/15 08:59:01;;;;;;;6.95;1.75;;;13.20;55.50;;;;;;5523317;26;20020;-81
2024/04/15 09:01:29;;;;;;;6.43;2.15;;;13.20;56.20;;;;;;5525756;25;20041;-84
2024/04/15 09:03:55;;;;;;;7.93;2.00;;;13.20;55.70;;;;;;5506167;26;20070;-82
2024/04/15 09:06:23;;;;;;;5.68;1.55;;;13.10;55.80;;;;;;5509094;26;20303;-84
2024/04/15 09:08:49;;;;;;;7.30;2.17;;;12.80;56.00;;;;;;5525389;25;19997;-82
2024/04/15 09:11:18;;;;;;;10.77;2.33;;;12.60;57.10;;;;;;5525045;25;20012;-82
2024/04/15 09:13:44;;;;;;;21.23;5.68;;;12.20;58.30;;;;;;5525614;26;20012;-83
2024/04/15 09:16:10;;;;;;;8.63;2.30;;;11.90;59.90;;;;;;5524151;25;19997;-80
2024/04/15 09:18:36;;;;;;;5.60;2.42;;;11.70;60.60;;;;;;5524199;25;20001;-80
2024/04/15 09:21:01;;;;;;;4.43;1.58;;;11.50;61.60;;;;;;5524295;25;20024;-81
2024/04/15 09:23:32;;;;;;;7.07;2.03;;;11.50;61.50;;;;;;5524245;25;20013;-82
2024/04/15 09:25:57;;;;;;;6.25;2.00;;;11.40;62.20;;;;;;5524791;25;19997;-82
2024/04/15 09:28:25;;;;;;;8.27;1.95;;;11.40;62.50;;;;;;5525047;25;20012;-81
2024/04/15 09:30:51;;;;;;;9.75;2.17;;;11.60;62.40;;;;;;5524035;26;20001;-83
2024/04/15 09:33:21;;;;;;;4.82;1.25;;;11.70;62.50;;;;;;5525442;25;20005;-81
2024/04/15 09:35:47;;;;;;;5.43;2.25;;;11.90;61.90;;;;;;5524959;25;20050;-83
2024/04/15 09:38:14;;;;;;;6.93;2.08;;;11.90;61.60;;;;;;5525243;26;20009;-83
2024/04/15 09:40:41;;;;;;;4.93;2.03;;;11.90;62.00;;;;;;5524889;26;20012;-83
2024/04/15 09:43:11;;;;;;;8.98;1.77;;;11.80;62.00;;;;;;5517581;25;19997;-85
2024/04/15 09:48:51;;;;;;;7.30;2.35;;;11.40;63.20;;;;;;5391675;26;20353;-78
2024/04/15 09:51:22;;;;;;;6.13;2.15;;;11.20;63.80;;;;;;5489056;26;20001;-87
2024/04/15 09:53:53;;;;;;;7.20;2.00;;;11.00;63.90;;;;;;5525177;25;20012;-88
2024/04/15 09:56:28;;;;;;;5.75;2.13;;;10.80;64.30;;;;;;5524114;26;20062;-86
2024/04/15 09:58:56;;;;;;;5.70;2.20;;;10.80;64.90;;;;;;5510716;25;20303;-85
2024/04/15 10:01:31;;;;;;;4.88;2.20;;;10.90;64.90;;;;;;5508591;25;20062;-84
2024/04/15 10:04:01;;;;;;;4.78;1.30;;;11.00;64.70;;;;;;5510398;25;20010;-84
2024/04/15 10:06:47;;;;;;;5.47;2.60;;;10.90;64.70;;;;;;5520085;26;20001;-85
2024/04/15 10:09:16;;;;;;;5.57;2.25;;;10.80;65.20;;;;;;5518855;25;20078;-84
2024/04/15 10:11:44;;;;;;;7.78;2.15;;;10.70;65.10;;;;;;5524949;25;19998;-85
2024/04/15 10:14:12;;;;;;;6.07;1.95;;;10.60;65.60;;;;;;5524717;26;20001;-81
2024/04/15 10:16:37;;;;;;;3.97;1.92;;;10.50;65.50;;;;;;5507827;26;20001;-82
2024/04/15 10:19:03;;;;;;;8.38;2.08;;;10.50;65.60;;;;;;5511272;25;20009;-82
2024/04/15 10:21:29;;;;;;;10.45;2.35;;;10.50;65.80;;;;;;5510437;25;19997;-79
2024/04/15 10:23:56;;;;;;;7.03;2.05;;;10.40;65.80;;;;;;5510155;25;20082;-81
2024/04/15 10:26:25;;;;;;;11.45;2.55;;;10.40;65.60;;;;;;5516712;25;19993;-84
2024/04/15 10:29:20;;;;;;;6.15;2.00;;;10.50;65.80;;;;;;5522313;26;20020;-82
2024/04/15 10:31:51;;;;;;;6.00;1.70;;;10.60;65.60;;;;;;5526928;25;20001;-83
2024/04/15 10:34:19;;;;;;;9.15;3.40;;;10.60;65.60;;;;;;5527666;25;20016;-83
2024/04/15 10:36:48;;;;;;;6.18;2.75;;;10.60;65.60;;;;;;5525713;26;20073;-83
2024/04/15 10:39:16;;;;;;;10.85;2.72;;;10.50;65.70;;;;;;5504433;26;20012;-83
2024/04/15 10:41:46;;;;;;;7.50;2.88;;;10.50;66.50;;;;;;5510217;25;20017;-82
2024/04/15 10:44:12;;;;;;;10.60;3.55;;;10.60;67.00;;;;;;5515701;25;20001;-84
2024/04/15 10:46:43;;;;;;;6.93;2.45;;;10.80;66.60;;;;;;5520877;25;20446;-82
2024/04/15 10:49:09;;;;;;;5.75;1.85;;;11.10;65.90;;;;;;5526997;25;20054;-83
2024/04/15 10:51:38;;;;;;;4.95;2.13;;;11.30;64.80;;;;;;5527259;25;19997;-82
2024/04/15 10:54:05;;;;;;;4.88;2.00;;;11.30;64.80;;;;;;5527326;25;20008;-83
2024/04/15 10:56:33;;;;;;;10.13;3.25;;;11.00;65.30;;;;;;5527660;26;19997;-83
2024/04/15 10:58:59;;;;;;;6.68;2.28;;;11.00;65.70;;;;;;5525339;26;20001;-82
2024/04/15 11:01:25;;;;;;;7.45;2.17;;;11.10;65.20;;;;;;5508722;26;20088;-83
2024/04/15 11:03:54;;;;;;;7.32;2.67;;;11.10;65.20;;;;;;5526935;25;19997;-84
2024/04/15 11:06:20;;;;;;;4.63;2.00;;;11.20;65.00;;;;;;5525668;26;19997;-83
2024/04/15 11:08:46;;;;;;;6.43;2.45;;;11.30;65.00;;;;;;5526827;25;20015;-84
2024/04/15 11:11:13;;;;;;;8.23;2.45;;;11.30;65.00;;;;;;5527004;26;20028;-84
2024/04/15 11:13:40;;;;;;;7.07;2.60;;;11.20;64.90;;;;;;5524880;25;20351;-80
2024/04/15 11:16:07;;;;;;;6.45;2.33;;;11.10;65.10;;;;;;5509493;25;19994;-85
2024/04/15 11:18:33;;;;;;;14.80;4.97;;;11.00;65.40;;;;;;5523765;26;20532;-84
2024/04/15 11:21:02;;;;;;;4.47;2.10;;;11.00;65.70;;;;;;5521512;25;19994;-83
2024/04/15 11:23:29;;;;;;;5.18;2.05;;;11.00;65.40;;;;;;5502140;26;20654;-84
2024/04/15 11:25:57;;;;;;;12.02;2.63;;;10.80;65.50;;;;;;5526981;25;20358;-84
2024/04/15 11:28:27;;;;;;;5.05;2.65;;;10.70;66.10;;;;;;5526970;25;20035;-81
2024/04/15 11:30:55;;;;;;;8.80;2.28;;;10.60;66.50;;;;;;5527164;25;20331;-82
2024/04/15 11:33:21;;;;;;;5.18;2.15;;;10.60;67.00;;;;;;5503509;25;20013;-82
2024/04/15 11:35:57;;;;;;;8.38;2.40;;;10.70;66.90;;;;;;5512775;25;20001;-85
2024/04/15 11:38:24;;;;;;;7.55;2.25;;;10.80;67.20;;;;;;5526319;26;20024;-84
2024/04/15 11:40:53;;;;;;;6.57;1.83;;;10.70;66.50;;;;;;5519609;25;20418;-81
2024/04/15 11:43:20;;;;;;;6.72;1.70;;;10.60;66.90;;;;;;5517735;26;20102;-82
2024/04/15 11:45:58;;;;;;;3.47;1.23;;;10.50;67.40;;;;;;5527740;25;20338;-80
2024/04/15 11:48:25;;;;;;;7.35;1.40;;;10.30;68.80;;;;;;5522236;25;20343;-82
2024/04/15 11:50:54;;;;;;;5.55;1.50;;;10.00;72.10;;;;;;5523552;25;19998;-85
2024/04/15 11:53:21;;;;;;;8.27;1.88;;;9.80;73.00;;;;;;5513411;25;20005;-80
2024/04/15 11:55:54;;;;;;;5.63;1.80;;;9.70;72.90;;;;;;5526437;25;20005;-81
2024/04/15 11:58:22;;;;;;;15.60;3.13;;;9.70;72.50;;;;;;5526383;25;20020;-81
2024/04/15 12:00:50;;;;;;;5.75;1.98;;;9.80;73.10;;;;;;5526711;25;20348;-80
2024/04/15 12:03:21;;;;;;;9.88;2.10;;;9.90;72.80;;;;;;5528174;25;20033;-81
2024/04/15 12:05:47;;;;;;;10.10;1.75;;;10.00;72.70;;;;;;5519310;25;20458;-83
2024/04/15 12:08:13;;;;;;;3.97;1.60;;;10.10;72.40;;;;;;5526276;26;20024;-82
2024/04/15 12:10:40;;;;;;;7.53;1.40;;;10.20;72.00;;;;;;5515931;25;20012;-83
2024/04/15 12:13:06;;;;;;;7.32;1.67;;;10.30;71.70;;;;;;5523654;26;20439;-81
2024/04/15 12:15:34;;;;;;;5.13;1.80;;;10.30;71.20;;;;;;5525575;25;20011;-82
2024/04/15 12:18:00;;;;;;;6.03;2.00;;;10.30;71.70;;;;;;5525324;25;20407;-81
2024/04/15 12:20:26;;;;;;;3.92;1.55;;;10.30;71.60;;;;;;5525527;26;20009;-80
2024/04/15 12:22:52;;;;;;;5.43;2.08;;;10.20;72.20;;;;;;5525136;25;20069;-79
2024/04/15 12:25:21;;;;;;;4.65;1.92;;;10.20;73.00;;;;;;5525290;25;20009;-82
2024/04/15 12:27:49;;;;;;;7.70;1.92;;;10.00;73.60;;;;;;5523955;26;20001;-81
2024/04/15 12:30:15;;;;;;;6.57;2.35;;;10.10;74.30;;;;;;5501846;25;20362;-79
2024/04/15 12:32:44;;;;;;;3.97;2.15;;;10.10;74.90;;;;;;5523005;26;19997;-79
2024/04/15 12:35:11;;;;;;;5.97;2.08;;;10.10;75.30;;;;;;5525302;25;19998;-79
2024/04/15 12:37:36;;;;;;;5.00;2.10;;;10.00;76.30;;;;;;5520020;25;20005;-83
2024/04/15 12:40:10;;;;;;;3.08;1.50;;;9.90;77.20;;;;;;5515733;25;20717;-81
2024/04/15 12:42:36;;;;;;;4.40;2.30;;;9.70;78.70;;;;;;5514210;25;20345;-80
2024/04/15 12:45:02;;;;;;;5.85;1.83;;;9.30;80.50;;;;;;5511007;26;20002;-81
2024/04/15 12:47:28;;;;;;;7.97;2.10;;;9.00;84.30;;;;;;5525255;25;20009;-80
2024/04/15 12:49:57;;;;;;;3.45;1.85;;;8.40;89.00;;;;;;5525390;25;20093;-78
2024/04/15 12:52:25;;;;;;;1.60;1.13;;;7.60;92.10;;;;;;5523798;25;19998;-78